sensor_id;sensor_type;location;lat;lon;timestamp;pressure;altitude;pressure_sealevel;temperature;humidity
35553;BME280;21656;46.054;13.614;2023-05-08T06:17:57;100810.41;;;18.39;100.00
35553;BME280;21656;46.054;13.614;2023-05-08T06:20:22;100807.66;;;18.39;100.00
35553;BME280;21656;46.054;13.614;2023-05-08T06:22:48;100809.38;;;18.40;100.00
35553;BME280;21656;46.054;13.614;2023-05-08T06:25:15;100803.75;;;18.41;100.00
35553;BME280;21656;46.054;13.614;2023-05-08T06:27:41;100813.47;;;18.44;100.00
35553;BME280;21656;46.054;13.614;2023-05-08T06:30:06;100810.25;;;18.49;100.00
35553;BME280;21656;46.054;13.614;2023-05-08T06:32:32;100810.75;;;18.44;100.00
35553;BME280;21656;46.054;13.614;2023-05-08T06:34:57;100813.66;;;18.51;100.00
35553;BME280;21656;46.054;13.614;2023-05-08T06:37:23;100809.44;;;18.56;100.00
35553;BME280;21656;46.054;13.614;2023-05-08T06:39:48;100819.31;;;18.57;100.00
35553;BME280;21656;46.054;13.614;2023-05-08T06:42:13;100825.13;;;18.62;100.00
35553;BME280;21656;46.054;13.614;2023-05-08T06:44:38;100813.50;;;18.60;100.00
35553;BME280;21656;46.054;13.614;2023-05-08T06:47:04;100808.59;;;18.64;100.00
35553;BME280;21656;46.054;13.614;2023-05-08T06:49:30;100815.41;;;18.68;100.00
35553;BME280;21656;46.054;13.614;2023-05-08T06:51:55;100809.31;;;18.74;100.00
35553;BME280;21656;46.054;13.614;2023-05-08T06:54:20;100815.59;;;18.75;100.00
35553;BME280;21656;46.054;13.614;2023-05-08T06:56:45;100819.38;;;18.74;100.00
35553;BME280;21656;46.054;13.614;2023-05-08T06:59:11;100820.06;;;18.76;100.00
35553;BME280;21656;46.054;13.614;2023-05-08T07:01:36;100828.94;;;18.78;100.00
35553;BME280;21656;46.054;13.614;2023-05-08T07:04:02;100837.47;;;18.83;100.00
35553;BME280;21656;46.054;13.614;2023-05-08T07:06:28;100829.13;;;18.84;100.00
35553;BME280;21656;46.054;13.614;2023-05-08T07:08:54;100829.28;;;18.91;100.00
35553;BME280;21656;46.054;13.614;2023-05-08T07:11:20;100831.88;;;18.93;100.00
35553;BME280;21656;46.054;13.614;2023-05-08T07:13:45;100833.91;;;18.91;100.00
35553;BME280;21656;46.054;13.614;2023-05-08T07:16:12;100828.97;;;18.94;100.00
35553;BME280;21656;46.054;13.614;2023-05-08T07:18:37;100833.75;;;19.00;100.00
35553;BME280;21656;46.054;13.614;2023-05-08T07:21:03;100830.38;;;19.07;100.00
35553;BME280;21656;46.054;13.614;2023-05-08T07:23:28;100837.38;;;19.09;100.00
35553;BME280;21656;46.054;13.614;2023-05-08T07:25:54;100826.09;;;19.12;100.00
35553;BME280;21656;46.054;13.614;2023-05-08T07:28:19;100831.72;;;19.19;100.00
35553;BME280;21656;46.054;13.614;2023-05-08T07:30:44;100830.34;;;19.23;100.00
35553;BME280;21656;46.054;13.614;2023-05-08T07:33:10;100827.47;;;19.24;100.00
35553;BME280;21656;46.054;13.614;2023-05-08T07:35:37;100835.31;;;19.27;100.00
35553;BME280;21656;46.054;13.614;2023-05-08T07:38:02;100829.84;;;19.36;100.00
35553;BME280;21656;46.054;13.614;2023-05-08T07:40:27;100835.50;;;19.42;100.00
35553;BME280;21656;46.054;13.614;2023-05-08T07:42:53;100836.16;;;19.53;100.00
35553;BME280;21656;46.054;13.614;2023-05-08T07:45:18;100834.63;;;19.50;100.00
35553;BME280;21656;46.054;13.614;2023-05-08T07:47:53;100837.50;;;19.57;100.00
35553;BME280;21656;46.054;13.614;2023-05-08T07:50:19;100836.00;;;19.62;100.00
35553;BME280;21656;46.054;13.614;2023-05-08T07:52:45;100825.22;;;19.69;100.00
35553;BME280;21656;46.054;13.614;2023-05-08T07:55:10;100828.28;;;19.74;100.00
35553;BME280;21656;46.054;13.614;2023-05-08T07:57:39;100830.84;;;19.84;100.00
35553;BME280;21656;46.054;13.614;2023-05-08T08:00:05;100831.34;;;19.87;100.00
35553;BME280;21656;46.054;13.614;2023-05-08T08:02:31;100827.72;;;19.95;100.00
35553;BME280;21656;46.054;13.614;2023-05-08T08:04:56;100831.47;;;20.02;100.00
35553;BME280;21656;46.054;13.614;2023-05-08T08:07:21;100830.09;;;20.06;100.00
35553;BME280;21656;46.054;13.614;2023-05-08T08:09:47;100831.97;;;20.14;100.00
35553;BME280;21656;46.054;13.614;2023-05-08T08:12:12;100831.59;;;20.17;100.00
35553;BME280;21656;46.054;13.614;2023-05-08T08:14:38;100829.06;;;20.16;100.00
35553;BME280;21656;46.054;13.614;2023-05-08T08:17:03;100834.84;;;20.12;100.00
35553;BME280;21656;46.054;13.614;2023-05-08T08:19:28;100827.28;;;20.23;100.00
35553;BME280;21656;46.054;13.614;2023-05-08T08:21:53;100828.88;;;20.17;100.00
35553;BME280;21656;46.054;13.614;2023-05-08T08:24:19;100831.28;;;20.12;100.00
35553;BME280;21656;46.054;13.614;2023-05-08T08:26:44;100827.22;;;20.08;100.00
35553;BME280;21656;46.054;13.614;2023-05-08T08:29:09;100823.78;;;20.06;100.00
35553;BME280;21656;46.054;13.614;2023-05-08T08:31:35;100832.16;;;20.04;100.00
35553;BME280;21656;46.054;13.614;2023-05-08T08:34:00;100826.88;;;20.03;100.00
35553;BME280;21656;46.054;13.614;2023-05-08T08:36:25;100835.56;;;20.06;100.00
35553;BME280;21656;46.054;13.614;2023-05-08T08:38:51;100830.94;;;20.07;100.00
35553;BME280;21656;46.054;13.614;2023-05-08T08:41:16;100833.31;;;20.10;100.00
35553;BME280;21656;46.054;13.614;2023-05-08T08:43:41;100831.09;;;20.13;100.00
35553;BME280;21656;46.054;13.614;2023-05-08T08:46:11;100837.44;;;20.14;100.00
35553;BME280;21656;46.054;13.614;2023-05-08T08:48:43;100835.91;;;20.11;100.00
35553;BME280;21656;46.054;13.614;2023-05-08T08:51:11;100830.06;;;20.14;100.00
35553;BME280;21656;46.054;13.614;2023-05-08T08:53:41;100835.72;;;20.13;100.00
35553;BME280;21656;46.054;13.614;2023-05-08T08:56:06;100841.53;;;20.18;100.00
35553;BME280;21656;46.054;13.614;2023-05-08T08:58:53;100841.84;;;20.15;100.00
35553;BME280;21656;46.054;13.614;2023-05-08T09:01:19;100836.06;;;20.10;100.00
35553;BME280;21656;46.054;13.614;2023-05-08T09:03:44;100834.84;;;20.12;100.00
35553;BME280;21656;46.054;13.614;2023-05-08T09:06:10;100840.16;;;20.14;100.00
35553;BME280;21656;46.054;13.614;2023-05-08T09:08:36;100841.19;;;20.13;100.00
35553;BME280;21656;46.054;13.614;2023-05-08T09:11:01;100836.75;;;20.12;100.00
35553;BME280;21656;46.054;13.614;2023-05-08T09:13:27;100835.91;;;20.11;100.00
35553;BME280;21656;46.054;13.614;2023-05-08T09:15:53;100837.78;;;20.11;100.00
35553;BME280;21656;46.054;13.614;2023-05-08T09:18:18;100839.66;;;20.10;100.00
35553;BME280;21656;46.054;13.614;2023-05-08T09:20:43;100829.94;;;20.08;100.00
35553;BME280;21656;46.054;13.614;2023-05-08T09:23:09;100841.00;;;20.14;100.00
35553;BME280;21656;46.054;13.614;2023-05-08T09:25:42;100837.25;;;20.16;100.00
35553;BME280;21656;46.054;13.614;2023-05-08T09:28:14;100833.66;;;20.15;99.79
35553;BME280;21656;46.054;13.614;2023-05-08T09:33:18;100836.53;;;20.22;100.00
35553;BME280;21656;46.054;13.614;2023-05-08T09:35:43;100834.84;;;20.21;98.04
35553;BME280;21656;46.054;13.614;2023-05-08T09:38:08;100839.97;;;20.24;100.00
35553;BME280;21656;46.054;13.614;2023-05-08T09:40:33;100845.56;;;20.30;99.85
35553;BME280;21656;46.054;13.614;2023-05-08T09:43:10;100853.59;;;20.32;99.49
35553;BME280;21656;46.054;13.614;2023-05-08T09:45:36;100842.81;;;20.39;100.00
35553;BME280;21656;46.054;13.614;2023-05-08T09:48:06;100846.50;;;20.46;100.00
35553;BME280;21656;46.054;13.614;2023-05-08T09:50:32;100851.66;;;20.49;100.00
35553;BME280;21656;46.054;13.614;2023-05-08T09:52:58;100854.72;;;20.46;94.41
35553;BME280;21656;46.054;13.614;2023-05-08T09:55:23;100848.28;;;20.39;94.35
35553;BME280;21656;46.054;13.614;2023-05-08T09:57:52;100849.13;;;20.39;97.52
35553;BME280;21656;46.054;13.614;2023-05-08T10:00:18;100851.50;;;20.42;99.67
35553;BME280;21656;46.054;13.614;2023-05-08T10:03:01;100855.72;;;20.53;98.38
35553;BME280;21656;46.054;13.614;2023-05-08T10:05:28;100856.75;;;20.60;96.11
35553;BME280;21656;46.054;13.614;2023-05-08T10:07:54;100860.31;;;20.69;93.90
35553;BME280;21656;46.054;13.614;2023-05-08T10:10:26;100860.63;;;20.66;96.16
35553;BME280;21656;46.054;13.614;2023-05-08T10:12:56;100860.63;;;20.66;90.98
35553;BME280;21656;46.054;13.614;2023-05-08T10:15:30;100863.38;;;20.66;91.09
35553;BME280;21656;46.054;13.614;2023-05-08T10:18:03;100867.00;;;20.66;90.23
35553;BME280;21656;46.054;13.614;2023-05-08T10:20:30;100858.06;;;20.72;91.52
35553;BME280;21656;46.054;13.614;2023-05-08T10:22:56;100865.22;;;20.73;90.64
35553;BME280;21656;46.054;13.614;2023-05-08T10:25:22;100865.59;;;20.70;89.41
35553;BME280;21656;46.054;13.614;2023-05-08T10:30:16;100867.47;;;20.70;91.22
35553;BME280;21656;46.054;13.614;2023-05-08T10:32:44;100874.47;;;20.72;89.64
35553;BME280;21656;46.054;13.614;2023-05-08T10:35:10;100865.28;;;20.65;87.32
35553;BME280;21656;46.054;13.614;2023-05-08T10:37:36;100866.31;;;20.64;91.29
35553;BME280;21656;46.054;13.614;2023-05-08T10:40:02;100871.25;;;20.69;89.50
35553;BME280;21656;46.054;13.614;2023-05-08T10:42:28;100861.84;;;20.63;90.16
35553;BME280;21656;46.054;13.614;2023-05-08T10:44:53;100865.59;;;20.70;92.57
35553;BME280;21656;46.054;13.614;2023-05-08T10:49:55;100865.28;;;20.65;90.93
35553;BME280;21656;46.054;13.614;2023-05-08T10:52:31;100865.94;;;20.67;92.16
35553;BME280;21656;46.054;13.614;2023-05-08T10:55:22;100873.16;;;20.60;92.59
35553;BME280;21656;46.054;13.614;2023-05-08T10:58:02;100872.31;;;20.51;90.77
35553;BME280;21656;46.054;13.614;2023-05-08T11:01:10;100876.44;;;20.47;96.27
35553;BME280;21656;46.054;13.614;2023-05-08T11:03:19;100875.06;;;20.43;99.11
35553;BME280;21656;46.054;13.614;2023-05-08T11:05:46;100882.63;;;20.41;98.54
35553;BME280;21656;46.054;13.614;2023-05-08T11:08:16;100880.38;;;20.45;95.71
35553;BME280;21656;46.054;13.614;2023-05-08T11:10:42;100877.81;;;20.43;97.02
35553;BME280;21656;46.054;13.614;2023-05-08T11:13:08;100873.75;;;20.39;95.00
35553;BME280;21656;46.054;13.614;2023-05-08T11:15:35;100881.94;;;20.39;95.63
35553;BME280;21656;46.054;13.614;2023-05-08T11:18:04;100874.44;;;20.33;96.62
35553;BME280;21656;46.054;13.614;2023-05-08T11:20:40;100881.63;;;20.34;97.24
35553;BME280;21656;46.054;13.614;2023-05-08T11:23:21;100881.28;;;20.29;97.00
35553;BME280;21656;46.054;13.614;2023-05-08T11:25:46;100882.00;;;20.14;93.21
35553;BME280;21656;46.054;13.614;2023-05-08T11:28:12;100883.56;;;20.09;93.83
35553;BME280;21656;46.054;13.614;2023-05-08T11:30:40;100887.03;;;20.03;98.89
35553;BME280;21656;46.054;13.614;2023-05-08T11:35:41;100890.06;;;20.00;99.92
35553;BME280;21656;46.054;13.614;2023-05-08T11:40:48;100891.31;;;19.81;95.48
35553;BME280;21656;46.054;13.614;2023-05-08T11:45:48;100897.13;;;19.69;98.05
35553;BME280;21656;46.054;13.614;2023-05-08T11:48:13;100893.16;;;19.64;100.00
35553;BME280;21656;46.054;13.614;2023-05-08T11:50:43;100892.69;;;19.68;100.00
35553;BME280;21656;46.054;13.614;2023-05-08T11:53:09;100898.31;;;19.67;100.00
35553;BME280;21656;46.054;13.614;2023-05-08T11:55:34;100898.81;;;19.62;100.00
35553;BME280;21656;46.054;13.614;2023-05-08T11:58:00;100898.63;;;19.56;100.00
35553;BME280;21656;46.054;13.614;2023-05-08T12:00:25;100906.50;;;19.42;100.00
35553;BME280;21656;46.054;13.614;2023-05-08T12:02:51;100907.50;;;19.25;100.00
35553;BME280;21656;46.054;13.614;2023-05-08T12:05:16;100907.63;;;19.15;100.00
35553;BME280;21656;46.054;13.614;2023-05-08T12:07:50;100901.13;;;19.08;100.00
35553;BME280;21656;46.054;13.614;2023-05-08T12:10:15;100906.59;;;19.00;100.00
35553;BME280;21656;46.054;13.614;2023-05-08T12:12:41;100900.28;;;18.99;100.00
35553;BME280;21656;46.054;13.614;2023-05-08T12:15:09;100901.81;;;19.02;100.00
35553;BME280;21656;46.054;13.614;2023-05-08T12:17:34;100904.72;;;19.09;100.00
35553;BME280;21656;46.054;13.614;2023-05-08T12:20:12;100912.41;;;19.13;100.00
35553;BME280;21656;46.054;13.614;2023-05-08T12:22:41;100919.06;;;19.11;100.00
35553;BME280;21656;46.054;13.614;2023-05-08T12:25:09;100918.84;;;19.04;100.00
35553;BME280;21656;46.054;13.614;2023-05-08T12:27:35;100913.41;;;19.04;100.00
35553;BME280;21656;46.054;13.614;2023-05-08T12:30:05;100912.75;;;19.02;100.00
35553;BME280;21656;46.054;13.614;2023-05-08T12:32:32;100915.59;;;18.92;100.00
35553;BME280;21656;46.054;13.614;2023-05-08T12:34:57;100917.25;;;18.77;100.00
35553;BME280;21656;46.054;13.614;2023-05-08T12:37:27;100920.75;;;18.61;100.00
35553;BME280;21656;46.054;13.614;2023-05-08T12:39:53;100925.97;;;18.46;100.00
35553;BME280;21656;46.054;13.614;2023-05-08T12:42:19;100917.22;;;18.34;100.00
35553;BME280;21656;46.054;13.614;2023-05-08T12:44:49;100917.88;;;18.28;100.00
35553;BME280;21656;46.054;13.614;2023-05-08T12:47:17;100926.16;;;18.18;100.00
35553;BME280;21656;46.054;13.614;2023-05-08T12:49:44;100924.44;;;18.17;100.00
35553;BME280;21656;46.054;13.614;2023-05-08T12:52:13;100929.50;;;18.12;100.00
35553;BME280;21656;46.054;13.614;2023-05-08T12:54:45;100929.50;;;18.12;100.00
35553;BME280;21656;46.054;13.614;2023-05-08T12:57:11;100921.28;;;18.04;100.00
35553;BME280;21656;46.054;13.614;2023-05-08T12:59:37;100922.78;;;17.98;100.00
35553;BME280;21656;46.054;13.614;2023-05-08T13:02:03;100927.75;;;18.03;100.00
35553;BME280;21656;46.054;13.614;2023-05-08T13:04:28;100922.97;;;18.05;100.00
35553;BME280;21656;46.054;13.614;2023-05-08T13:06:54;100919.59;;;18.03;100.00
35553;BME280;21656;46.054;13.614;2023-05-08T13:09:20;100914.50;;;18.08;100.00
35553;BME280;21656;46.054;13.614;2023-05-08T13:11:47;100925.44;;;18.16;100.00
35553;BME280;21656;46.054;13.614;2023-05-08T13:14:12;100929.69;;;18.11;100.00
35553;BME280;21656;46.054;13.614;2023-05-08T13:16:44;100926.72;;;18.04;100.00
35553;BME280;21656;46.054;13.614;2023-05-08T13:19:10;100924.66;;;17.98;100.00
35553;BME280;21656;46.054;13.614;2023-05-08T13:21:35;100925.50;;;17.98;100.00
35553;BME280;21656;46.054;13.614;2023-05-08T13:24:00;100925.84;;;17.95;100.00
35553;BME280;21656;46.054;13.614;2023-05-08T13:26:26;100917.09;;;17.92;100.00
35553;BME280;21656;46.054;13.614;2023-05-08T13:28:51;100921.84;;;17.90;100.00
35553;BME280;21656;46.054;13.614;2023-05-08T13:31:16;100918.09;;;17.83;100.00
35553;BME280;21656;46.054;13.614;2023-05-08T13:33:42;100927.47;;;17.88;100.00
35553;BME280;21656;46.054;13.614;2023-05-08T13:36:07;100921.19;;;17.88;100.00
35553;BME280;21656;46.054;13.614;2023-05-08T13:38:32;100929.09;;;17.99;100.00
35553;BME280;21656;46.054;13.614;2023-05-08T13:40:58;100926.63;;;17.88;100.00
35553;BME280;21656;46.054;13.614;2023-05-08T13:43:24;100924.75;;;17.88;100.00
35553;BME280;21656;46.054;13.614;2023-05-08T13:45:49;100920.16;;;17.89;100.00
35553;BME280;21656;46.054;13.614;2023-05-08T13:48:14;100928.38;;;17.97;100.00
35553;BME280;21656;46.054;13.614;2023-05-08T13:50:40;100931.09;;;17.97;100.00
35553;BME280;21656;46.054;13.614;2023-05-08T13:53:05;100930.78;;;18.00;100.00
35553;BME280;21656;46.054;13.614;2023-05-08T13:55:30;100922.22;;;17.95;100.00
35553;BME280;21656;46.054;13.614;2023-05-08T13:57:56;100933.25;;;17.85;100.00
35553;BME280;21656;46.054;13.614;2023-05-08T14:00:21;100925.84;;;17.77;100.00
35553;BME280;21656;46.054;13.614;2023-05-08T14:02:47;100923.53;;;17.65;100.00
35553;BME280;21656;46.054;13.614;2023-05-08T14:05:12;100930.59;;;17.58;100.00
35553;BME280;21656;46.054;13.614;2023-05-08T14:07:37;100932.25;;;17.50;100.00
35553;BME280;21656;46.054;13.614;2023-05-08T14:10:04;100931.69;;;17.47;100.00
35553;BME280;21656;46.054;13.614;2023-05-08T14:12:29;100933.34;;;17.40;100.00
35553;BME280;21656;46.054;13.614;2023-05-08T14:14:55;100928.03;;;17.38;100.00
35553;BME280;21656;46.054;13.614;2023-05-08T14:17:20;100928.88;;;17.39;100.00
35553;BME280;21656;46.054;13.614;2023-05-08T14:19:45;100936.91;;;17.40;100.00
35553;BME280;21656;46.054;13.614;2023-05-08T14:22:11;100935.34;;;17.38;100.00
35553;BME280;21656;46.054;13.614;2023-05-08T14:24:36;100934.66;;;17.36;100.00
35553;BME280;21656;46.054;13.614;2023-05-08T14:27:01;100935.69;;;17.35;100.00
35553;BME280;21656;46.054;13.614;2023-05-08T14:29:30;100941.91;;;17.27;100.00
35553;BME280;21656;46.054;13.614;2023-05-08T14:31:55;100941.00;;;17.26;100.00
35553;BME280;21656;46.054;13.614;2023-05-08T14:34:21;100931.47;;;17.22;100.00
35553;BME280;21656;46.054;13.614;2023-05-08T14:36:46;100928.75;;;17.22;100.00
35553;BME280;21656;46.054;13.614;2023-05-08T14:39:11;100933.78;;;17.17;100.00
35553;BME280;21656;46.054;13.614;2023-05-08T14:41:36;100926.41;;;17.09;100.00
35553;BME280;21656;46.054;13.614;2023-05-08T14:44:03;100923.44;;;17.03;100.00
35553;BME280;21656;46.054;13.614;2023-05-08T14:46:29;100928.03;;;17.02;100.00
35553;BME280;21656;46.054;13.614;2023-05-08T14:48:54;100924.66;;;17.08;100.00
35553;BME280;21656;46.054;13.614;2023-05-08T14:51:19;100929.56;;;17.05;100.00
35553;BME280;21656;46.054;13.614;2023-05-08T14:53:45;100931.28;;;17.06;100.00
35553;BME280;21656;46.054;13.614;2023-05-08T14:56:10;100920.97;;;17.09;100.00
35553;BME280;21656;46.054;13.614;2023-05-08T14:58:36;100931.53;;;17.13;100.00
35553;BME280;21656;46.054;13.614;2023-05-08T15:01:01;100925.38;;;17.10;100.00
35553;BME280;21656;46.054;13.614;2023-05-08T15:03:26;100925.78;;;17.16;100.00
35553;BME280;21656;46.054;13.614;2023-05-08T15:05:52;100931.34;;;17.14;100.00
35553;BME280;21656;46.054;13.614;2023-05-08T15:08:17;100933.53;;;17.10;100.00
35553;BME280;21656;46.054;13.614;2023-05-08T15:10:42;100929.88;;;17.02;100.00
35553;BME280;21656;46.054;13.614;2023-05-08T15:13:07;100922.72;;;17.01;100.00
35553;BME280;21656;46.054;13.614;2023-05-08T15:15:33;100923.88;;;16.98;100.00
35553;BME280;21656;46.054;13.614;2023-05-08T15:17:58;100926.47;;;17.00;100.00
35553;BME280;21656;46.054;13.614;2023-05-08T15:20:23;100934.22;;;16.95;100.00
35553;BME280;21656;46.054;13.614;2023-05-08T15:22:49;100924.97;;;16.87;100.00
35553;BME280;21656;46.054;13.614;2023-05-08T15:25:14;100926.84;;;16.87;100.00
35553;BME280;21656;46.054;13.614;2023-05-08T15:27:39;100927.69;;;16.87;100.00
35553;BME280;21656;46.054;13.614;2023-05-08T15:30:06;100929.09;;;16.92;100.00
35553;BME280;21656;46.054;13.614;2023-05-08T15:32:31;100924.97;;;16.87;100.00
35553;BME280;21656;46.054;13.614;2023-05-08T15:34:57;100920.53;;;16.86;100.00
35553;BME280;21656;46.054;13.614;2023-05-08T15:37:22;100920.53;;;16.86;100.00
35553;BME280;21656;46.054;13.614;2023-05-08T15:39:47;100923.09;;;16.88;100.00
35553;BME280;21656;46.054;13.614;2023-05-08T15:42:14;100904.22;;;16.86;100.00
35553;BME280;21656;46.054;13.614;2023-05-08T15:44:39;100921.00;;;16.82;100.00
35553;BME280;21656;46.054;13.614;2023-05-08T15:47:04;100918.81;;;16.85;100.00
35553;BME280;21656;46.054;13.614;2023-05-08T15:49:30;100921.53;;;16.85;100.00
35553;BME280;21656;46.054;13.614;2023-05-08T15:51:55;100908.94;;;16.84;100.00
35553;BME280;21656;46.054;13.614;2023-05-08T15:54:21;100923.25;;;16.86;100.00
35553;BME280;21656;46.054;13.614;2023-05-08T15:56:46;100914.38;;;16.84;100.00
35553;BME280;21656;46.054;13.614;2023-05-08T15:59:12;100922.88;;;16.81;100.00
35553;BME280;21656;46.054;13.614;2023-05-08T16:01:37;100912.84;;;16.82;100.00
35553;BME280;21656;46.054;13.614;2023-05-08T16:04:05;100915.97;;;16.77;100.00
35553;BME280;21656;46.054;13.614;2023-05-08T16:06:30;100914.97;;;16.78;100.00
35553;BME280;21656;46.054;13.614;2023-05-08T16:08:56;100909.66;;;16.86;100.00
35553;BME280;21656;46.054;13.614;2023-05-08T16:11:21;100906.22;;;16.84;100.00
35553;BME280;21656;46.054;13.614;2023-05-08T16:13:47;100896.50;;;16.82;100.00
35553;BME280;21656;46.054;13.614;2023-05-08T16:16:12;100906.13;;;16.76;100.00
35553;BME280;21656;46.054;13.614;2023-05-08T16:18:37;100899.78;;;16.76;100.00
35553;BME280;21656;46.054;13.614;2023-05-08T16:21:09;100909.41;;;16.70;100.00
35553;BME280;21656;46.054;13.614;2023-05-08T16:23:34;100910.28;;;16.71;100.00
35553;BME280;21656;46.054;13.614;2023-05-08T16:25:59;100915.72;;;16.71;100.00
35553;BME280;21656;46.054;13.614;2023-05-08T16:28:25;100924.75;;;16.71;100.00
35553;BME280;21656;46.054;13.614;2023-05-08T16:30:50;100919.75;;;16.66;100.00
35553;BME280;21656;46.054;13.614;2023-05-08T16:33:15;100924.19;;;16.67;100.00
35553;BME280;21656;46.054;13.614;2023-05-08T16:35:40;100921.75;;;16.64;100.00
35553;BME280;21656;46.054;13.614;2023-05-08T16:38:06;100917.78;;;16.59;100.00
35553;BME280;21656;46.054;13.614;2023-05-08T16:40:31;100927.09;;;16.56;100.00
35553;BME280;21656;46.054;13.614;2023-05-08T16:42:56;100916.59;;;16.43;100.00
35553;BME280;21656;46.054;13.614;2023-05-08T16:45:21;100926.16;;;16.38;100.00
35553;BME280;21656;46.054;13.614;2023-05-08T16:47:47;100920.50;;;16.31;100.00
35553;BME280;21656;46.054;13.614;2023-05-08T16:50:12;100930.94;;;16.26;100.00
35553;BME280;21656;46.054;13.614;2023-05-08T16:52:37;100922.78;;;16.26;100.00
35553;BME280;21656;46.054;13.614;2023-05-08T16:55:02;100919.38;;;16.24;100.00
35553;BME280;21656;46.054;13.614;2023-05-08T16:57:28;100918.25;;;16.17;100.00
35553;BME280;21656;46.054;13.614;2023-05-08T16:59:54;100922.53;;;16.10;100.00
35553;BME280;21656;46.054;13.614;2023-05-08T17:02:19;100927.72;;;16.03;100.00
35553;BME280;21656;46.054;13.614;2023-05-08T17:04:46;100923.56;;;15.99;100.00
35553;BME280;21656;46.054;13.614;2023-05-08T17:07:12;100944.28;;;16.00;100.00
35553;BME280;21656;46.054;13.614;2023-05-08T17:09:37;100935.72;;;16.04;100.00
35553;BME280;21656;46.054;13.614;2023-05-08T17:12:03;100934.56;;;15.97;100.00
35553;BME280;21656;46.054;13.614;2023-05-08T17:14:28;100924.59;;;15.98;100.00
35553;BME280;21656;46.054;13.614;2023-05-08T17:16:54;100928.91;;;15.91;100.00
35553;BME280;21656;46.054;13.614;2023-05-08T17:19:19;100921.91;;;15.88;100.00
35553;BME280;21656;46.054;13.614;2023-05-08T17:21:44;100932.88;;;15.87;100.00
35553;BME280;21656;46.054;13.614;2023-05-08T17:24:10;100931.50;;;15.82;100.00
35553;BME280;21656;46.054;13.614;2023-05-08T17:26:35;100941.63;;;15.80;100.00
35553;BME280;21656;46.054;13.614;2023-05-08T17:29:00;100928.91;;;15.81;100.00
35553;BME280;21656;46.054;13.614;2023-05-08T17:31:25;100923.06;;;15.76;100.00
35553;BME280;21656;46.054;13.614;2023-05-08T17:33:51;100934.34;;;15.71;100.00
35553;BME280;21656;46.054;13.614;2023-05-08T17:36:16;100936.94;;;15.73;100.00
35553;BME280;21656;46.054;13.614;2023-05-08T17:38:41;100936.94;;;15.73;100.00
35553;BME280;21656;46.054;13.614;2023-05-08T17:41:10;100934.47;;;15.70;100.00
35553;BME280;21656;46.054;13.614;2023-05-08T17:43:35;100945.47;;;15.68;100.00
35553;BME280;21656;46.054;13.614;2023-05-08T17:46:00;100942.16;;;15.65;100.00
35553;BME280;21656;46.054;13.614;2023-05-08T17:48:26;100939.63;;;15.63;100.00
35553;BME280;21656;46.054;13.614;2023-05-08T17:50:51;100940.75;;;15.60;100.00
35553;BME280;21656;46.054;13.614;2023-05-08T17:53:17;100950.59;;;15.61;100.00
35553;BME280;21656;46.054;13.614;2023-05-08T17:55:44;100936.31;;;15.59;100.00
35553;BME280;21656;46.054;13.614;2023-05-08T17:58:09;100957.03;;;15.60;100.00
35553;BME280;21656;46.054;13.614;2023-05-08T18:00:35;100956.47;;;15.57;100.00
35553;BME280;21656;46.054;13.614;2023-05-08T18:03:01;100968.19;;;15.57;100.00
35553;BME280;21656;46.054;13.614;2023-05-08T18:05:27;100961.03;;;15.56;100.00
35553;BME280;21656;46.054;13.614;2023-05-08T18:07:52;100959.75;;;15.51;100.00
35553;BME280;21656;46.054;13.614;2023-05-08T18:10:18;100972.75;;;15.47;100.00
35553;BME280;21656;46.054;13.614;2023-05-08T18:12:43;100960.59;;;15.42;100.00
35553;BME280;21656;46.054;13.614;2023-05-08T18:15:08;100970.88;;;15.38;100.00
35553;BME280;21656;46.054;13.614;2023-05-08T18:17:34;100976.19;;;15.39;100.00
35553;BME280;21656;46.054;13.614;2023-05-08T18:19:59;100969.16;;;15.47;100.00
35553;BME280;21656;46.054;13.614;2023-05-08T18:22:28;100978.31;;;15.46;100.00
35553;BME280;21656;46.054;13.614;2023-05-08T18:24:53;100981.59;;;15.49;100.00
35553;BME280;21656;46.054;13.614;2023-05-08T18:27:21;100976.75;;;15.53;100.00
35553;BME280;21656;46.054;13.614;2023-05-08T18:29:46;100973.75;;;15.46;100.00
35553;BME280;21656;46.054;13.614;2023-05-08T18:32:11;100973.63;;;15.48;100.00
35553;BME280;21656;46.054;13.614;2023-05-08T18:34:36;100976.75;;;15.43;100.00
35553;BME280;21656;46.054;13.614;2023-05-08T18:37:02;100979.34;;;15.45;100.00
35553;BME280;21656;46.054;13.614;2023-05-08T18:39:27;100980.03;;;15.47;100.00
35553;BME280;21656;46.054;13.614;2023-05-08T18:41:52;100999.31;;;15.44;100.00
35553;BME280;21656;46.054;13.614;2023-05-08T18:44:17;100982.75;;;15.37;100.00
35553;BME280;21656;46.054;13.614;2023-05-08T18:46:43;100969.19;;;15.37;100.00
35553;BME280;21656;46.054;13.614;2023-05-08T18:49:08;100987.13;;;15.18;100.00
35553;BME280;21656;46.054;13.614;2023-05-08T18:51:33;100982.13;;;15.14;100.00
35553;BME280;21656;46.054;13.614;2023-05-08T18:53:58;100986.69;;;15.13;100.00
35553;BME280;21656;46.054;13.614;2023-05-08T18:56:24;100996.25;;;15.08;100.00
35553;BME280;21656;46.054;13.614;2023-05-08T18:58:50;100993.94;;;15.03;100.00